sensor_id;sensor_type;location;lat;lon;timestamp;pressure;altitude;pressure_sealevel;temperature;humidity
21879;BME280;27908;42.708;23.278;2023-05-19T00:01:06;63981.69;;;11.49;100.00
21879;BME280;27908;42.708;23.278;2023-05-19T00:03:33;63979.72;;;11.55;100.00
21879;BME280;27908;42.708;23.278;2023-05-19T00:06:01;63972.59;;;11.58;100.00
21879;BME280;27908;42.708;23.278;2023-05-19T00:08:29;63917.00;;;11.61;100.00
21879;BME280;27908;42.708;23.278;2023-05-19T00:10:56;63939.53;;;11.65;100.00
21879;BME280;27908;42.708;23.278;2023-05-19T00:13:22;63937.75;;;11.46;100.00
21879;BME280;27908;42.708;23.278;2023-05-19T00:15:48;63948.50;;;11.49;100.00
21879;BME280;27908;42.708;23.278;2023-05-19T00:18:13;63914.94;;;11.59;100.00
21879;BME280;27908;42.708;23.278;2023-05-19T00:20:41;63947.53;;;11.53;100.00
21879;BME280;27908;42.708;23.278;2023-05-19T00:23:06;63928.09;;;11.49;100.00
21879;BME280;27908;42.708;23.278;2023-05-19T00:25:32;63919.38;;;11.46;100.00
21879;BME280;27908;42.708;23.278;2023-05-19T00:27:57;63940.84;;;11.49;100.00
21879;BME280;27908;42.708;23.278;2023-05-19T00:30:23;63931.09;;;11.45;100.00
21879;BME280;27908;42.708;23.278;2023-05-19T00:32:50;63946.38;;;11.42;100.00
21879;BME280;27908;42.708;23.278;2023-05-19T00:35:15;63975.63;;;11.53;100.00
21879;BME280;27908;42.708;23.278;2023-05-19T00:37:41;63959.34;;;11.57;100.00
21879;BME280;27908;42.708;23.278;2023-05-19T00:40:07;63977.78;;;11.63;100.00
21879;BME280;27908;42.708;23.278;2023-05-19T00:42:32;63935.31;;;11.54;100.00
21879;BME280;27908;42.708;23.278;2023-05-19T00:44:58;63984.47;;;11.67;100.00
21879;BME280;27908;42.708;23.278;2023-05-19T00:47:24;63955.28;;;11.61;100.00
21879;BME280;27908;42.708;23.278;2023-05-19T00:49:49;63918.16;;;11.30;100.00
21879;BME280;27908;42.708;23.278;2023-05-19T00:52:15;63912.03;;;11.32;100.00
21879;BME280;27908;42.708;23.278;2023-05-19T00:54:42;63898.69;;;11.24;100.00
21879;BME280;27908;42.708;23.278;2023-05-19T00:57:08;63920.56;;;11.20;100.00
21879;BME280;27908;42.708;23.278;2023-05-19T00:59:34;63905.88;;;11.28;100.00
21879;BME280;27908;42.708;23.278;2023-05-19T01:01:59;63901.66;;;11.19;100.00
21879;BME280;27908;42.708;23.278;2023-05-19T01:04:27;63901.59;;;11.12;100.00
21879;BME280;27908;42.708;23.278;2023-05-19T01:06:54;63878.13;;;11.11;100.00
21879;BME280;27908;42.708;23.278;2023-05-19T01:09:21;63824.38;;;10.97;100.00
21879;BME280;27908;42.708;23.278;2023-05-19T01:11:47;63865.50;;;10.82;100.00
21879;BME280;27908;42.708;23.278;2023-05-19T01:14:14;63847.72;;;10.87;100.00
21879;BME280;27908;42.708;23.278;2023-05-19T01:16:43;63822.25;;;10.90;100.00
21879;BME280;27908;42.708;23.278;2023-05-19T01:30:32;63872.22;;;10.89;100.00
21879;BME280;27908;42.708;23.278;2023-05-19T01:33:01;63810.38;;;10.78;100.00
21879;BME280;27908;42.708;23.278;2023-05-19T01:35:29;63867.00;;;10.79;100.00
21879;BME280;27908;42.708;23.278;2023-05-19T01:37:57;63955.06;;;10.70;100.00
21879;BME280;27908;42.708;23.278;2023-05-19T01:40:23;63862.91;;;10.77;100.00
21879;BME280;27908;42.708;23.278;2023-05-19T01:42:51;63829.69;;;10.72;100.00
21879;BME280;27908;42.708;23.278;2023-05-19T01:45:18;63835.84;;;10.76;100.00
21879;BME280;27908;42.708;23.278;2023-05-19T01:47:46;63834.28;;;10.72;100.00
21879;BME280;27908;42.708;23.278;2023-05-19T01:50:12;63839.00;;;10.84;100.00
21879;BME280;27908;42.708;23.278;2023-05-19T01:52:37;63844.53;;;10.77;100.00
21879;BME280;27908;42.708;23.278;2023-05-19T01:55:04;63836.84;;;10.74;100.00
21879;BME280;27908;42.708;23.278;2023-05-19T02:00:21;63798.31;;;10.50;100.00
21879;BME280;27908;42.708;23.278;2023-05-19T02:08:41;63814.50;;;10.41;100.00
21879;BME280;27908;42.708;23.278;2023-05-19T02:11:19;63782.91;;;10.40;100.00
21879;BME280;27908;42.708;23.278;2023-05-19T02:13:49;63820.06;;;10.36;100.00
21879;BME280;27908;42.708;23.278;2023-05-19T02:16:16;63778.25;;;10.35;100.00
21879;BME280;27908;42.708;23.278;2023-05-19T02:18:41;63777.25;;;10.34;100.00
21879;BME280;27908;42.708;23.278;2023-05-19T02:21:10;63744.41;;;10.18;100.00
21879;BME280;27908;42.708;23.278;2023-05-19T02:23:39;63800.56;;;10.28;100.00
21879;BME280;27908;42.708;23.278;2023-05-19T02:26:05;63774.13;;;10.31;100.00
21879;BME280;27908;42.708;23.278;2023-05-19T02:28:35;63755.28;;;10.30;100.00
21879;BME280;27908;42.708;23.278;2023-05-19T02:31:01;63811.66;;;10.19;100.00
21879;BME280;27908;42.708;23.278;2023-05-19T02:33:27;63783.91;;;10.38;100.00
21879;BME280;27908;42.708;23.278;2023-05-19T02:35:54;63804.72;;;10.34;100.00
21879;BME280;27908;42.708;23.278;2023-05-19T02:38:20;63757.84;;;10.33;100.00
21879;BME280;27908;42.708;23.278;2023-05-19T02:40:45;63814.50;;;10.41;100.00
21879;BME280;27908;42.708;23.278;2023-05-19T02:43:11;63791.06;;;10.40;100.00
21879;BME280;27908;42.708;23.278;2023-05-19T02:45:36;63778.34;;;10.43;100.00
21879;BME280;27908;42.708;23.278;2023-05-19T02:48:02;63791.47;;;10.33;100.00
21879;BME280;27908;42.708;23.278;2023-05-19T02:50:27;63767.56;;;10.35;100.00
21879;BME280;27908;42.708;23.278;2023-05-19T02:52:53;63809.34;;;10.36;100.00
21879;BME280;27908;42.708;23.278;2023-05-19T02:55:18;63783.91;;;10.38;100.00
21879;BME280;27908;42.708;23.278;2023-05-19T02:57:44;63762.38;;;10.28;100.00
21879;BME280;27908;42.708;23.278;2023-05-19T03:00:09;63726.53;;;10.13;100.00
21879;BME280;27908;42.708;23.278;2023-05-19T03:02:35;63814.34;;;10.29;100.00
21879;BME280;27908;42.708;23.278;2023-05-19T03:05:00;63751.06;;;10.19;100.00
21879;BME280;27908;42.708;23.278;2023-05-19T03:07:28;63833.03;;;10.17;100.00
21879;BME280;27908;42.708;23.278;2023-05-19T03:09:53;63754.09;;;10.17;100.00
21879;BME280;27908;42.708;23.278;2023-05-19T03:12:18;63739.56;;;9.96;100.00
21879;BME280;27908;42.708;23.278;2023-05-19T03:14:44;63742.25;;;10.06;100.00
21879;BME280;27908;42.708;23.278;2023-05-19T03:17:10;63691.81;;;10.04;100.00
21879;BME280;27908;42.708;23.278;2023-05-19T03:19:36;63763.19;;;10.11;100.00
21879;BME280;27908;42.708;23.278;2023-05-19T03:22:01;63756.56;;;10.10;100.00
21879;BME280;27908;42.708;23.278;2023-05-19T03:24:27;63725.91;;;10.02;100.00
21879;BME280;27908;42.708;23.278;2023-05-19T03:26:52;63728.97;;;10.03;100.00
21879;BME280;27908;42.708;23.278;2023-05-19T03:29:18;63730.88;;;9.95;100.00
21879;BME280;27908;42.708;23.278;2023-05-19T03:31:43;63731.00;;;10.05;100.00
21879;BME280;27908;42.708;23.278;2023-05-19T03:34:08;63813.94;;;9.99;100.00
21879;BME280;27908;42.708;23.278;2023-05-19T03:36:34;63754.50;;;10.10;100.00
21879;BME280;27908;42.708;23.278;2023-05-19T03:39:06;63756.56;;;10.12;100.00
21879;BME280;27908;42.708;23.278;2023-05-19T03:41:31;63733.47;;;9.97;100.00
21879;BME280;27908;42.708;23.278;2023-05-19T03:43:57;63766.81;;;10.17;100.00
21879;BME280;27908;42.708;23.278;2023-05-19T03:46:22;63787.16;;;10.15;100.00
21879;BME280;27908;42.708;23.278;2023-05-19T03:48:48;63781.59;;;10.17;100.00
21879;BME280;27908;42.708;23.278;2023-05-19T03:51:13;63783.03;;;10.11;100.00
21879;BME280;27908;42.708;23.278;2023-05-19T03:53:38;63797.47;;;10.25;100.00
21879;BME280;27908;42.708;23.278;2023-05-19T03:56:05;63817.38;;;10.27;100.00
21879;BME280;27908;42.708;23.278;2023-05-19T03:58:32;63794.00;;;10.31;100.00
21879;BME280;27908;42.708;23.278;2023-05-19T04:00:57;63916.63;;;10.22;100.00
21879;BME280;27908;42.708;23.278;2023-05-19T04:03:22;63772.16;;;10.37;100.00
21879;BME280;27908;42.708;23.278;2023-05-19T04:05:50;63791.06;;;10.40;100.00
21879;BME280;27908;42.708;23.278;2023-05-19T04:08:15;63808.38;;;10.40;100.00
21879;BME280;27908;42.708;23.278;2023-05-19T04:10:41;63788.00;;;10.40;100.00
21879;BME280;27908;42.708;23.278;2023-05-19T04:13:06;63748.63;;;10.29;100.00
21879;BME280;27908;42.708;23.278;2023-05-19T04:15:32;63804.41;;;10.48;100.00
21879;BME280;27908;42.708;23.278;2023-05-19T04:17:57;63832.13;;;10.63;100.00
21879;BME280;27908;42.708;23.278;2023-05-19T04:20:23;63826.66;;;10.74;100.00
21879;BME280;27908;42.708;23.278;2023-05-19T04:22:49;63866.06;;;10.85;100.00
21879;BME280;27908;42.708;23.278;2023-05-19T04:25:14;63874.44;;;11.03;100.00
21879;BME280;27908;42.708;23.278;2023-05-19T04:27:39;63904.16;;;11.14;100.00
21879;BME280;27908;42.708;23.278;2023-05-19T04:30:05;63896.53;;;11.17;100.00
21879;BME280;27908;42.708;23.278;2023-05-19T04:32:31;63913.13;;;11.37;100.00
21879;BME280;27908;42.708;23.278;2023-05-19T04:34:57;63897.38;;;11.42;100.00
21879;BME280;27908;42.708;23.278;2023-05-19T04:37:23;63930.63;;;11.47;100.00
21879;BME280;27908;42.708;23.278;2023-05-19T04:39:50;63949.06;;;11.52;100.00
21879;BME280;27908;42.708;23.278;2023-05-19T04:42:16;63999.19;;;11.61;100.00
21879;BME280;27908;42.708;23.278;2023-05-19T04:44:48;63981.81;;;11.59;100.00
21879;BME280;27908;42.708;23.278;2023-05-19T04:47:15;63974.28;;;11.69;100.00
21879;BME280;27908;42.708;23.278;2023-05-19T04:49:42;63974.34;;;11.74;100.00
21879;BME280;27908;42.708;23.278;2023-05-19T04:52:09;64029.66;;;11.85;100.00
21879;BME280;27908;42.708;23.278;2023-05-19T04:54:35;64033.91;;;11.97;100.00
21879;BME280;27908;42.708;23.278;2023-05-19T04:57:01;63997.66;;;11.99;100.00
21879;BME280;27908;42.708;23.278;2023-05-19T04:59:27;64048.84;;;12.08;100.00
21879;BME280;27908;42.708;23.278;2023-05-19T05:01:53;64024.88;;;12.12;100.00
21879;BME280;27908;42.708;23.278;2023-05-19T05:04:20;64208.25;;;12.07;100.00
21879;BME280;27908;42.708;23.278;2023-05-19T05:06:45;64075.09;;;12.21;100.00
21879;BME280;27908;42.708;23.278;2023-05-19T05:09:13;64035.81;;;12.28;100.00
21879;BME280;27908;42.708;23.278;2023-05-19T05:11:39;64072.06;;;12.26;100.00
21879;BME280;27908;42.708;23.278;2023-05-19T05:14:05;64090.09;;;12.36;100.00
21879;BME280;27908;42.708;23.278;2023-05-19T05:16:31;64159.16;;;12.41;100.00
21879;BME280;27908;42.708;23.278;2023-05-19T05:18:58;64132.75;;;12.54;100.00
21879;BME280;27908;42.708;23.278;2023-05-19T05:21:24;64090.25;;;12.48;100.00
21879;BME280;27908;42.708;23.278;2023-05-19T05:23:51;64171.75;;;12.65;100.00
21879;BME280;27908;42.708;23.278;2023-05-19T05:26:18;64143.88;;;12.80;100.00
21879;BME280;27908;42.708;23.278;2023-05-19T05:28:44;64156.72;;;12.87;100.00
21879;BME280;27908;42.708;23.278;2023-05-19T05:31:09;64094.69;;;12.77;100.00
21879;BME280;27908;42.708;23.278;2023-05-19T05:33:35;64148.53;;;12.86;100.00
21879;BME280;27908;42.708;23.278;2023-05-19T05:36:01;64166.13;;;13.01;100.00
21879;BME280;27908;42.708;23.278;2023-05-19T05:38:26;64162.66;;;13.10;100.00
21879;BME280;27908;42.708;23.278;2023-05-19T05:40:52;64196.53;;;13.17;100.00
21879;BME280;27908;42.708;23.278;2023-05-19T05:43:17;64214.38;;;13.13;100.00
21879;BME280;27908;42.708;23.278;2023-05-19T05:45:43;64221.25;;;13.29;100.00
21879;BME280;27908;42.708;23.278;2023-05-19T05:48:08;64226.41;;;13.34;100.00
21879;BME280;27908;42.708;23.278;2023-05-19T05:50:34;64229.09;;;13.41;100.00
21879;BME280;27908;42.708;23.278;2023-05-19T05:53:00;64190.09;;;13.36;100.00
21879;BME280;27908;42.708;23.278;2023-05-19T05:55:27;64240.84;;;13.40;100.00
21879;BME280;27908;42.708;23.278;2023-05-19T05:57:52;64261.03;;;13.57;100.00
21879;BME280;27908;42.708;23.278;2023-05-19T06:00:18;64246.13;;;13.52;100.00
21879;BME280;27908;42.708;23.278;2023-05-19T06:02:45;64251.94;;;13.65;100.00
21879;BME280;27908;42.708;23.278;2023-05-19T06:05:14;64312.47;;;13.74;100.00
21879;BME280;27908;42.708;23.278;2023-05-19T06:07:40;64293.13;;;13.83;100.00
21879;BME280;27908;42.708;23.278;2023-05-19T06:10:06;64261.25;;;13.74;100.00
21879;BME280;27908;42.708;23.278;2023-05-19T06:12:32;64277.88;;;13.92;100.00
21879;BME280;27908;42.708;23.278;2023-05-19T06:14:58;64319.56;;;14.05;100.00
21879;BME280;27908;42.708;23.278;2023-05-19T06:17:23;64329.84;;;14.08;100.00
21879;BME280;27908;42.708;23.278;2023-05-19T06:19:49;64359.22;;;14.19;100.00
21879;BME280;27908;42.708;23.278;2023-05-19T06:22:14;64363.41;;;14.27;100.00
21879;BME280;27908;42.708;23.278;2023-05-19T06:24:40;64357.25;;;14.26;100.00
21879;BME280;27908;42.708;23.278;2023-05-19T06:27:05;64364.63;;;14.41;100.00
21879;BME280;27908;42.708;23.278;2023-05-19T06:29:31;64344.47;;;14.29;100.00
21879;BME280;27908;42.708;23.278;2023-05-19T06:31:56;64430.97;;;14.55;100.00
21879;BME280;27908;42.708;23.278;2023-05-19T06:34:22;64421.84;;;14.63;100.00
21879;BME280;27908;42.708;23.278;2023-05-19T06:36:47;64428.72;;;14.80;100.00
21879;BME280;27908;42.708;23.278;2023-05-19T06:39:13;64471.94;;;14.87;100.00
21879;BME280;27908;42.708;23.278;2023-05-19T06:41:38;64482.25;;;14.92;100.00
21879;BME280;27908;42.708;23.278;2023-05-19T06:44:05;64479.22;;;14.93;100.00
21879;BME280;27908;42.708;23.278;2023-05-19T06:46:31;64440.69;;;14.91;100.00
21879;BME280;27908;42.708;23.278;2023-05-19T06:48:56;64503.03;;;15.09;100.00
21879;BME280;27908;42.708;23.278;2023-05-19T06:51:22;64523.72;;;15.19;100.00
21879;BME280;27908;42.708;23.278;2023-05-19T06:53:48;64481.56;;;15.15;100.00
21879;BME280;27908;42.708;23.278;2023-05-19T06:56:13;64492.38;;;15.18;100.00
21879;BME280;27908;42.708;23.278;2023-05-19T06:58:43;64543.28;;;15.23;100.00
21879;BME280;27908;42.708;23.278;2023-05-19T07:01:08;64573.84;;;15.42;100.00
21879;BME280;27908;42.708;23.278;2023-05-19T07:03:34;64555.88;;;15.42;100.00
21879;BME280;27908;42.708;23.278;2023-05-19T07:05:59;64599.25;;;15.59;100.00
21879;BME280;27908;42.708;23.278;2023-05-19T07:08:25;64573.38;;;15.44;100.00
21879;BME280;27908;42.708;23.278;2023-05-19T07:10:52;64588.66;;;15.73;100.00
21879;BME280;27908;42.708;23.278;2023-05-19T07:13:17;64579.38;;;15.71;100.00
21879;BME280;27908;42.708;23.278;2023-05-19T07:15:43;64616.03;;;15.84;100.00
21879;BME280;27908;42.708;23.278;2023-05-19T07:18:08;64645.50;;;15.95;98.57
21879;BME280;27908;42.708;23.278;2023-05-19T07:20:34;64680.72;;;16.14;98.03
21879;BME280;27908;42.708;23.278;2023-05-19T07:22:59;64702.03;;;16.29;98.32
21879;BME280;27908;42.708;23.278;2023-05-19T07:25:27;64747.22;;;16.23;94.98
21879;BME280;27908;42.708;23.278;2023-05-19T07:27:55;64734.09;;;16.40;94.57
21879;BME280;27908;42.708;23.278;2023-05-19T07:30:20;64705.88;;;16.47;92.58
21879;BME280;27908;42.708;23.278;2023-05-19T07:32:46;64782.44;;;16.76;93.80
21879;BME280;27908;42.708;23.278;2023-05-19T07:35:11;64720.34;;;16.51;88.88
21879;BME280;27908;42.708;23.278;2023-05-19T07:37:37;64736.91;;;16.60;91.20
21879;BME280;27908;42.708;23.278;2023-05-19T07:40:03;64761.78;;;16.71;91.08
21879;BME280;27908;42.708;23.278;2023-05-19T07:42:30;64780.34;;;16.74;94.50
21879;BME280;27908;42.708;23.278;2023-05-19T07:44:55;64826.97;;;16.94;90.54
21879;BME280;27908;42.708;23.278;2023-05-19T07:47:21;64839.06;;;17.10;92.14
21879;BME280;27908;42.708;23.278;2023-05-19T07:49:46;64862.88;;;17.18;88.44
21879;BME280;27908;42.708;23.278;2023-05-19T07:52:12;64840.38;;;16.94;86.54
21879;BME280;27908;42.708;23.278;2023-05-19T07:54:37;64836.00;;;17.12;89.46
21879;BME280;27908;42.708;23.278;2023-05-19T07:57:02;64861.81;;;17.14;91.43
21879;BME280;27908;42.708;23.278;2023-05-19T07:59:28;64868.75;;;17.33;86.77
21879;BME280;27908;42.708;23.278;2023-05-19T08:01:53;64894.47;;;17.28;86.99
21879;BME280;27908;42.708;23.278;2023-05-19T08:04:19;64895.13;;;17.39;85.81
21879;BME280;27908;42.708;23.278;2023-05-19T08:06:44;64896.13;;;17.37;84.56
21879;BME280;27908;42.708;23.278;2023-05-19T08:09:10;64955.91;;;17.72;92.53
21879;BME280;27908;42.708;23.278;2023-05-19T08:11:36;64975.22;;;17.87;87.27
21879;BME280;27908;42.708;23.278;2023-05-19T08:14:02;64985.09;;;17.94;83.39
21879;BME280;27908;42.708;23.278;2023-05-19T08:16:27;64986.69;;;17.98;84.50
21879;BME280;27908;42.708;23.278;2023-05-19T08:18:52;65061.31;;;18.17;86.71
21879;BME280;27908;42.708;23.278;2023-05-19T08:21:19;65074.50;;;18.37;80.46
21879;BME280;27908;42.708;23.278;2023-05-19T08:23:45;65161.13;;;18.63;85.60
21879;BME280;27908;42.708;23.278;2023-05-19T08:26:11;65062.69;;;18.43;84.35
21879;BME280;27908;42.708;23.278;2023-05-19T08:28:36;65097.94;;;18.52;81.05
21879;BME280;27908;42.708;23.278;2023-05-19T08:31:02;65102.84;;;18.69;85.26
21879;BME280;27908;42.708;23.278;2023-05-19T08:33:27;65196.66;;;18.89;88.32
21879;BME280;27908;42.708;23.278;2023-05-19T08:35:55;65186.38;;;18.94;78.05
21879;BME280;27908;42.708;23.278;2023-05-19T08:38:22;65181.72;;;18.92;78.58
21879;BME280;27908;42.708;23.278;2023-05-19T08:40:47;65234.00;;;18.97;78.88
21879;BME280;27908;42.708;23.278;2023-05-19T08:43:13;65182.91;;;19.03;77.92
21879;BME280;27908;42.708;23.278;2023-05-19T08:45:43;65186.00;;;19.01;78.13
21879;BME280;27908;42.708;23.278;2023-05-19T08:48:13;65247.72;;;19.15;81.20
21879;BME280;27908;42.708;23.278;2023-05-19T08:53:35;65358.16;;;19.65;79.32
21879;BME280;27908;42.708;23.278;2023-05-19T08:56:10;65374.56;;;19.88;75.69
21879;BME280;27908;42.708;23.278;2023-05-19T08:58:39;65339.22;;;19.79;73.57
21879;BME280;27908;42.708;23.278;2023-05-19T09:01:07;65402.38;;;19.80;74.48
21879;BME280;27908;42.708;23.278;2023-05-19T09:03:33;65369.38;;;19.88;74.22
21879;BME280;27908;42.708;23.278;2023-05-19T09:06:06;65343.84;;;19.79;74.75
21879;BME280;27908;42.708;23.278;2023-05-19T09:08:39;65388.16;;;19.98;76.68
21879;BME280;27908;42.708;23.278;2023-05-19T09:11:05;65460.84;;;20.11;73.31
21879;BME280;27908;42.708;23.278;2023-05-19T09:13:30;65419.59;;;20.21;72.12
21879;BME280;27908;42.708;23.278;2023-05-19T09:15:57;65472.16;;;20.36;72.70
21879;BME280;27908;42.708;23.278;2023-05-19T09:18:25;65525.69;;;20.47;71.47
21879;BME280;27908;42.708;23.278;2023-05-19T09:20:55;65553.44;;;20.64;71.13
21879;BME280;27908;42.708;23.278;2023-05-19T09:23:29;65506.13;;;20.56;71.63
21879;BME280;27908;42.708;23.278;2023-05-19T09:25:55;65615.03;;;20.90;76.38
21879;BME280;27908;42.708;23.278;2023-05-19T09:28:25;65596.91;;;21.24;73.80
21879;BME280;27908;42.708;23.278;2023-05-19T09:30:59;65630.47;;;21.14;68.06
21879;BME280;27908;42.708;23.278;2023-05-19T09:33:25;65646.97;;;21.07;71.23
21879;BME280;27908;42.708;23.278;2023-05-19T09:35:53;65699.28;;;21.32;75.10
21879;BME280;27908;42.708;23.278;2023-05-19T09:38:19;65721.44;;;21.53;69.11
21879;BME280;27908;42.708;23.278;2023-05-19T09:40:47;65699.81;;;21.64;67.71
21879;BME280;27908;42.708;23.278;2023-05-19T09:43:12;65781.69;;;21.85;75.48
21879;BME280;27908;42.708;23.278;2023-05-19T09:45:38;65815.66;;;21.97;68.96
21879;BME280;27908;42.708;23.278;2023-05-19T09:48:03;65808.34;;;21.95;63.51
21879;BME280;27908;42.708;23.278;2023-05-19T09:50:30;65870.38;;;22.07;69.42
21879;BME280;27908;42.708;23.278;2023-05-19T09:52:56;65773.81;;;21.80;71.59
21879;BME280;27908;42.708;23.278;2023-05-19T09:55:25;65865.00;;;21.97;64.32
21879;BME280;27908;42.708;23.278;2023-05-19T09:57:54;65926.53;;;22.35;68.21
21879;BME280;27908;42.708;23.278;2023-05-19T10:00:21;65945.88;;;22.41;65.93
21879;BME280;27908;42.708;23.278;2023-05-19T10:02:48;66017.22;;;22.76;65.45
21879;BME280;27908;42.708;23.278;2023-05-19T10:05:18;66050.22;;;22.87;65.18
21879;BME280;27908;42.708;23.278;2023-05-19T10:07:51;66132.50;;;23.18;63.15
21879;BME280;27908;42.708;23.278;2023-05-19T10:10:17;66221.16;;;23.52;68.54
21879;BME280;27908;42.708;23.278;2023-05-19T10:12:46;66285.50;;;23.90;62.76
21879;BME280;27908;42.708;23.278;2023-05-19T10:15:14;66311.72;;;23.97;56.63
21879;BME280;27908;42.708;23.278;2023-05-19T10:17:41;66322.28;;;24.05;58.01
21879;BME280;27908;42.708;23.278;2023-05-19T10:20:16;66322.91;;;24.10;56.60
21879;BME280;27908;42.708;23.278;2023-05-19T10:22:43;66228.63;;;23.59;56.20
21879;BME280;27908;42.708;23.278;2023-05-19T10:25:09;66255.34;;;23.67;59.07
21879;BME280;27908;42.708;23.278;2023-05-19T10:27:42;66148.81;;;23.26;57.50
21879;BME280;27908;42.708;23.278;2023-05-19T10:30:19;66217.72;;;23.61;57.67
21879;BME280;27908;42.708;23.278;2023-05-19T10:32:46;66178.91;;;23.49;56.32
21879;BME280;27908;42.708;23.278;2023-05-19T10:35:41;66184.56;;;23.45;57.29
21879;BME280;27908;42.708;23.278;2023-05-19T10:46:03;65904.88;;;22.17;62.12
21879;BME280;27908;42.708;23.278;2023-05-19T10:48:32;65762.94;;;21.82;58.62
21879;BME280;27908;42.708;23.278;2023-05-19T10:51:01;65802.06;;;21.92;58.63
21879;BME280;27908;42.708;23.278;2023-05-19T10:53:31;65988.94;;;22.11;59.15
21879;BME280;27908;42.708;23.278;2023-05-19T10:55:58;65899.47;;;22.34;58.02
21879;BME280;27908;42.708;23.278;2023-05-19T11:01:17;65883.38;;;22.07;56.24
21879;BME280;27908;42.708;23.278;2023-05-19T11:06:29;65907.94;;;22.45;59.16
21879;BME280;27908;42.708;23.278;2023-05-19T11:11:26;66023.72;;;22.89;55.11
21879;BME280;27908;42.708;23.278;2023-05-19T11:13:53;66191.31;;;23.44;60.83
21879;BME280;27908;42.708;23.278;2023-05-19T11:16:29;66265.69;;;23.64;53.51
21879;BME280;27908;42.708;23.278;2023-05-19T11:18:58;66215.06;;;23.58;55.00
21879;BME280;27908;42.708;23.278;2023-05-19T11:21:23;66141.28;;;23.41;51.24
21879;BME280;27908;42.708;23.278;2023-05-19T11:23:50;66123.41;;;23.34;53.45
21879;BME280;27908;42.708;23.278;2023-05-19T11:26:38;66133.97;;;23.41;51.58
21879;BME280;27908;42.708;23.278;2023-05-19T11:29:05;66055.69;;;23.02;53.06
21879;BME280;27908;42.708;23.278;2023-05-19T11:31:31;66081.13;;;22.99;54.68
21879;BME280;27908;42.708;23.278;2023-05-19T11:33:56;66081.81;;;23.07;52.90
21879;BME280;27908;42.708;23.278;2023-05-19T11:36:22;66184.47;;;23.40;52.02
21879;BME280;27908;42.708;23.278;2023-05-19T11:38:48;66119.06;;;23.22;50.75
21879;BME280;27908;42.708;23.278;2023-05-19T11:41:15;66231.69;;;23.06;52.00
21879;BME280;27908;42.708;23.278;2023-05-19T11:43:40;66080.16;;;23.03;53.18
21879;BME280;27908;42.708;23.278;2023-05-19T11:46:06;66004.03;;;22.66;52.57
21879;BME280;27908;42.708;23.278;2023-05-19T11:48:34;65824.16;;;22.08;52.05
21879;BME280;27908;42.708;23.278;2023-05-19T11:50:59;65877.16;;;22.09;53.52
21879;BME280;27908;42.708;23.278;2023-05-19T11:53:25;65844.41;;;22.07;52.91
21879;BME280;27908;42.708;23.278;2023-05-19T11:56:02;65887.25;;;22.20;55.15
21879;BME280;27908;42.708;23.278;2023-05-19T11:58:28;65893.25;;;22.36;53.59
21879;BME280;27908;42.708;23.278;2023-05-19T12:00:54;65916.47;;;22.26;53.04
21879;BME280;27908;42.708;23.278;2023-05-19T12:03:22;65855.97;;;22.13;54.70
21879;BME280;27908;42.708;23.278;2023-05-19T12:05:52;65782.34;;;21.93;53.76
21879;BME280;27908;42.708;23.278;2023-05-19T12:08:18;65790.41;;;21.78;57.24
21879;BME280;27908;42.708;23.278;2023-05-19T12:10:47;65705.22;;;21.45;60.32
21879;BME280;27908;42.708;23.278;2023-05-19T12:13:13;65649.75;;;21.17;60.97
21879;BME280;27908;42.708;23.278;2023-05-19T12:15:38;65581.66;;;20.78;64.00
21879;BME280;27908;42.708;23.278;2023-05-19T12:18:04;65526.84;;;20.56;64.83
21879;BME280;27908;42.708;23.278;2023-05-19T12:20:31;65381.34;;;19.92;70.05
21879;BME280;27908;42.708;23.278;2023-05-19T12:22:57;65306.41;;;19.65;79.17
21879;BME280;27908;42.708;23.278;2023-05-19T12:25:24;65233.66;;;19.09;85.52
21879;BME280;27908;42.708;23.278;2023-05-19T12:27:50;65118.09;;;18.52;85.08
21879;BME280;27908;42.708;23.278;2023-05-19T12:30:17;65128.75;;;18.40;85.40
21879;BME280;27908;42.708;23.278;2023-05-19T12:32:44;65044.78;;;18.17;82.78
21879;BME280;27908;42.708;23.278;2023-05-19T12:35:10;64981.94;;;17.89;84.21
21879;BME280;27908;42.708;23.278;2023-05-19T12:37:40;64967.31;;;17.75;81.83
21879;BME280;27908;42.708;23.278;2023-05-19T12:40:06;65041.69;;;17.82;84.79
21879;BME280;27908;42.708;23.278;2023-05-19T12:42:31;64972.50;;;17.78;82.08
21879;BME280;27908;42.708;23.278;2023-05-19T12:44:58;64981.81;;;17.79;83.65
21879;BME280;27908;42.708;23.278;2023-05-19T12:47:34;64994.78;;;17.86;84.58
21879;BME280;27908;42.708;23.278;2023-05-19T12:50:05;64996.03;;;18.02;83.67
21879;BME280;27908;42.708;23.278;2023-05-19T12:52:41;65056.72;;;18.20;80.93
21879;BME280;27908;42.708;23.278;2023-05-19T12:55:08;65114.78;;;18.39;77.31
21879;BME280;27908;42.708;23.278;2023-05-19T12:57:39;65134.94;;;18.75;79.94
21879;BME280;27908;42.708;23.278;2023-05-19T13:00:07;65248.28;;;19.18;74.58
21879;BME280;27908;42.708;23.278;2023-05-19T13:02:58;65297.50;;;19.60;69.91
21879;BME280;27908;42.708;23.278;2023-05-19T13:05:26;65292.38;;;19.62;65.12
21879;BME280;27908;42.708;23.278;2023-05-19T13:10:20;65346.91;;;19.77;64.44
21879;BME280;27908;42.708;23.278;2023-05-19T13:12:46;65387.50;;;19.88;62.90
21879;BME280;27908;42.708;23.278;2023-05-19T13:15:11;65400.81;;;20.13;63.82
21879;BME280;27908;42.708;23.278;2023-05-19T13:17:37;65391.25;;;19.97;60.40
21879;BME280;27908;42.708;23.278;2023-05-19T13:20:02;65435.28;;;20.31;62.72
21879;BME280;27908;42.708;23.278;2023-05-19T13:22:29;65530.50;;;20.57;59.63
21879;BME280;27908;42.708;23.278;2023-05-19T13:24:54;65562.78;;;20.65;56.60